createdAt,value
2023-02-04T00:00:27.397Z,18.05
2023-02-04T00:03:12.972Z,19.85
2023-02-04T00:05:58.481Z,15.48
2023-02-04T00:08:44.344Z,18.23
2023-02-04T00:11:29.791Z,16.63
2023-02-04T00:14:15.469Z,21.13
2023-02-04T00:17:00.917Z,17.25
2023-02-04T00:19:46.636Z,19.95
2023-02-04T00:22:34.217Z,20.40
2023-02-04T00:25:19.896Z,20.63
2023-02-04T00:28:06.325Z,16.25
2023-02-04T00:30:52.042Z,18.17
2023-02-04T00:33:37.794Z,15.18
2023-02-04T00:36:23.567Z,19.23
2023-02-04T00:39:09.087Z,14.95
2023-02-04T00:41:54.673Z,17.35
2023-02-04T00:44:40.272Z,15.73
2023-02-04T00:47:26.080Z,22.52
2023-02-04T00:50:11.782Z,18.27
2023-02-04T00:52:57.153Z,15.60
2023-02-04T00:55:42.977Z,16.10
2023-02-04T00:58:28.611Z,16.35
2023-02-04T01:01:14.017Z,16.05
2023-02-04T01:03:59.727Z,22.45
2023-02-04T01:06:45.020Z,18.38
2023-02-04T01:09:30.629Z,18.00
2023-02-04T01:12:16.234Z,17.17
2023-02-04T01:15:02.474Z,17.00
2023-02-04T01:17:47.984Z,16.38
2023-02-04T01:20:33.579Z,19.15
2023-02-04T01:23:19.192Z,17.33
2023-02-04T01:26:07.953Z,16.20
2023-02-04T01:28:53.973Z,14.63
2023-02-04T01:31:40.122Z,18.30
2023-02-04T01:34:26.324Z,15.50
2023-02-04T01:37:12.019Z,12.98
2023-02-04T01:39:57.366Z,14.00
2023-02-04T01:42:42.955Z,18.55
2023-02-04T01:45:30.708Z,15.40
2023-02-04T01:48:20.522Z,17.20
2023-02-04T01:51:09.283Z,20.80
2023-02-04T01:53:55.430Z,20.08
2023-02-04T01:56:44.638Z,16.98
2023-02-04T01:59:30.468Z,16.85
2023-02-04T02:02:44.578Z,18.58
2023-02-04T02:05:36.565Z,17.05
2023-02-04T02:08:22.023Z,19.85
2023-02-04T02:11:07.505Z,16.77
2023-02-04T02:13:53.584Z,22.48
2023-02-04T02:16:39.266Z,20.27
2023-02-04T02:19:33.818Z,16.88
2023-02-04T02:22:28.320Z,16.65
2023-02-04T02:25:14.649Z,14.60
2023-02-04T02:28:01.732Z,20.33
2023-02-04T02:30:49.560Z,18.35
2023-02-04T02:33:35.944Z,16.88
2023-02-04T02:36:22.866Z,13.95
2023-02-04T02:39:09.180Z,16.95
2023-02-04T02:41:56.401Z,19.30
2023-02-04T02:44:42.818Z,17.25
2023-02-04T02:47:28.519Z,20.80
2023-02-04T02:50:19.861Z,16.67
2023-02-04T02:53:12.192Z,16.35
2023-02-04T02:55:57.713Z,18.27
2023-02-04T02:58:43.053Z,18.35
2023-02-04T03:01:28.902Z,14.85
2023-02-04T03:04:15.262Z,19.30
2023-02-04T03:07:01.404Z,18.83
2023-02-04T03:09:47.261Z,18.40
2023-02-04T03:12:32.726Z,16.23
2023-02-04T03:15:18.188Z,17.70
2023-02-04T03:18:03.767Z,17.77
2023-02-04T03:20:51.280Z,20.83
2023-02-04T03:23:37.752Z,16.17
2023-02-04T03:26:26.915Z,17.17
2023-02-04T03:29:12.769Z,17.95
2023-02-04T03:32:00.058Z,22.58
2023-02-04T03:34:46.001Z,18.85
2023-02-04T03:37:31.460Z,17.17
2023-02-04T03:40:17.329Z,16.80
2023-02-04T03:43:02.635Z,16.27
2023-02-04T03:45:48.119Z,17.00
2023-02-04T03:48:33.700Z,19.08
2023-02-04T03:51:19.146Z,17.00
2023-02-04T03:54:05.004Z,18.27
2023-02-04T03:56:50.375Z,20.55
2023-02-04T03:59:35.793Z,20.00
2023-02-04T04:02:21.229Z,19.70
2023-02-04T04:05:07.968Z,22.42
2023-02-04T04:07:53.284Z,22.67
2023-02-04T04:10:39.419Z,22.08
2023-02-04T04:13:25.443Z,19.15
2023-02-04T04:16:11.104Z,19.90
2023-02-04T04:18:56.908Z,19.38
2023-02-04T04:21:42.667Z,18.83
2023-02-04T04:24:28.027Z,19.25
2023-02-04T04:27:13.583Z,21.15
2023-02-04T04:29:59.296Z,22.73
2023-02-04T04:32:44.804Z,18.73
2023-02-04T04:35:30.425Z,22.25
2023-02-04T04:38:16.060Z,24.10
2023-02-04T04:41:01.739Z,21.48
2023-02-04T04:43:47.674Z,21.45
2023-02-04T04:46:33.442Z,21.45
2023-02-04T04:49:19.221Z,24.15
2023-02-04T04:52:04.965Z,29.02
2023-02-04T04:54:50.598Z,22.13
2023-02-04T04:57:36.179Z,21.48
2023-02-04T05:00:21.895Z,20.15
2023-02-04T05:03:07.657Z,19.65
2023-02-04T05:05:52.901Z,21.30
2023-02-04T05:08:38.589Z,24.85
2023-02-04T05:11:23.873Z,24.77
2023-02-04T05:14:09.469Z,20.83
2023-02-04T05:16:55.145Z,22.38
2023-02-04T05:19:40.571Z,20.80
2023-02-04T05:22:26.302Z,17.33
2023-02-04T05:25:11.990Z,19.60
2023-02-04T05:27:57.652Z,20.83
2023-02-04T05:30:43.275Z,18.50
2023-02-04T05:33:28.722Z,22.70
2023-02-04T05:36:14.254Z,19.83
2023-02-04T05:38:59.982Z,22.75
2023-02-04T05:41:45.579Z,22.55
2023-02-04T05:44:31.156Z,19.05
2023-02-04T05:47:16.646Z,20.45
2023-02-04T05:50:02.672Z,15.82
2023-02-04T05:52:48.318Z,20.27
2023-02-04T05:55:33.778Z,17.88
2023-02-04T05:58:19.808Z,25.63
2023-02-04T06:01:05.587Z,22.60
2023-02-04T06:03:51.508Z,20.67
2023-02-04T06:06:38.731Z,19.08
2023-02-04T06:09:24.940Z,17.30
2023-02-04T06:12:11.299Z,18.02
2023-02-04T06:14:57.143Z,17.52
2023-02-04T06:17:43.052Z,14.10
2023-02-04T06:20:29.645Z,18.55
2023-02-04T06:23:16.200Z,13.18
2023-02-04T06:26:03.186Z,15.25
2023-02-04T06:28:49.161Z,14.23
2023-02-04T06:31:37.849Z,18.23
2023-02-04T06:34:23.922Z,15.18
2023-02-04T06:37:10.669Z,16.27
2023-02-04T06:39:57.661Z,18.10
2023-02-04T06:42:43.707Z,14.15
2023-02-04T06:45:30.157Z,16.42
2023-02-04T06:48:16.571Z,14.88
2023-02-04T06:51:02.858Z,14.40
2023-02-04T06:53:49.389Z,17.02
2023-02-04T06:56:35.772Z,14.70
2023-02-04T06:59:28.619Z,16.63
2023-02-04T07:02:13.928Z,14.52
2023-02-04T07:05:01.249Z,16.92
2023-02-04T07:07:46.666Z,19.17
2023-02-04T07:10:33.249Z,15.27
2023-02-04T07:13:18.692Z,14.63
2023-02-04T07:16:04.322Z,15.50
2023-02-04T07:18:50.257Z,16.65
2023-02-04T07:21:35.941Z,16.27
2023-02-04T07:24:21.710Z,15.35
2023-02-04T07:27:07.171Z,14.73
2023-02-04T07:29:52.658Z,13.45
2023-02-04T07:32:38.213Z,13.32
2023-02-04T07:35:24.382Z,16.02
2023-02-04T07:38:09.928Z,16.73
2023-02-04T07:40:58.306Z,16.52
2023-02-04T07:43:47.173Z,14.88
2023-02-04T07:46:32.539Z,15.48
2023-02-04T07:49:18.237Z,14.75
2023-02-04T07:52:03.906Z,18.27
2023-02-04T07:54:49.294Z,16.02
2023-02-04T07:57:35.338Z,16.90
2023-02-04T08:00:21.031Z,17.08
2023-02-04T08:03:06.933Z,17.40
2023-02-04T08:05:52.373Z,17.02
2023-02-04T08:08:38.231Z,18.55
2023-02-04T08:11:23.981Z,16.65
2023-02-04T08:14:09.767Z,15.63
2023-02-04T08:16:55.308Z,15.70
2023-02-04T08:19:41.212Z,15.82
2023-02-04T08:22:29.074Z,15.85
2023-02-04T08:25:37.701Z,15.48
2023-02-04T08:28:37.415Z,17.33
2023-02-04T08:31:28.266Z,18.10
2023-02-04T08:34:37.047Z,15.80
2023-02-04T08:37:25.163Z,13.98
2023-02-04T08:40:11.961Z,14.05
2023-02-04T08:42:58.153Z,16.60
2023-02-04T08:45:44.508Z,14.05
2023-02-04T08:48:31.070Z,12.93
2023-02-04T08:51:17.610Z,12.63
2023-02-04T08:54:04.571Z,16.92
2023-02-04T08:56:50.488Z,15.63
2023-02-04T08:59:37.054Z,13.98
2023-02-04T09:02:22.472Z,12.82
2023-02-04T09:05:10.143Z,16.80
2023-02-04T09:08:00.222Z,14.10
2023-02-04T09:10:47.728Z,14.15
2023-02-04T09:13:34.349Z,11.88
2023-02-04T09:16:19.778Z,14.43
2023-02-04T09:19:09.454Z,16.65
2023-02-04T09:21:56.438Z,12.10
2023-02-04T09:24:48.874Z,13.75
2023-02-04T09:30:21.537Z,15.00
2023-02-04T09:33:07.623Z,13.60
2023-02-04T09:35:53.228Z,11.40
2023-02-04T09:38:38.593Z,14.23
2023-02-04T09:41:24.451Z,12.30
2023-02-04T09:44:19.218Z,13.10
2023-02-04T09:47:04.686Z,14.50
2023-02-04T09:49:50.245Z,12.52
2023-02-04T09:52:36.032Z,12.90
2023-02-04T09:55:26.338Z,10.10
2023-02-04T09:58:23.253Z,10.27
2023-02-04T10:01:21.415Z,11.18
2023-02-04T10:04:16.841Z,11.80
2023-02-04T10:07:03.899Z,10.55
2023-02-04T10:09:50.406Z,8.82
2023-02-04T10:12:36.032Z,9.63
2023-02-04T10:15:22.484Z,7.03
2023-02-04T10:18:09.055Z,8.98
2023-02-04T10:21:43.833Z,7.03
2023-02-04T10:24:32.018Z,8.38
2023-02-04T10:27:17.647Z,10.18
2023-02-04T10:30:08.644Z,7.40
2023-02-04T10:32:55.791Z,11.23
2023-02-04T10:35:53.039Z,6.70
2023-02-04T10:38:38.407Z,8.00
2023-02-04T10:41:23.977Z,7.95
2023-02-04T10:44:19.273Z,5.40
2023-02-04T10:47:17.485Z,3.65
2023-02-04T10:50:18.259Z,8.18
2023-02-04T10:53:22.361Z,4.80
2023-02-04T10:56:21.209Z,5.53
2023-02-04T10:59:23.885Z,9.82
2023-02-04T11:02:33.682Z,4.78
2023-02-04T11:05:23.711Z,7.88
2023-02-04T11:08:27.145Z,3.28
2023-02-04T11:11:20.377Z,6.90
2023-02-04T11:14:21.739Z,5.53
2023-02-04T11:17:07.430Z,7.30
2023-02-04T11:19:53.619Z,3.80
2023-02-04T11:22:54.039Z,5.75
2023-02-04T11:25:54.882Z,4.75
2023-02-04T11:28:52.326Z,4.45
2023-02-04T11:31:56.055Z,4.45
2023-02-04T11:34:49.812Z,3.20
2023-02-04T11:37:41.802Z,6.90
2023-02-04T11:40:34.088Z,2.70
2023-02-04T11:43:21.729Z,4.80
2023-02-04T11:46:17.160Z,3.78
2023-02-04T11:49:03.331Z,3.15
2023-02-04T11:51:48.708Z,8.18
2023-02-04T11:54:34.919Z,5.25
2023-02-04T11:57:20.380Z,3.33
2023-02-04T12:00:07.512Z,4.97
2023-02-04T12:03:09.660Z,4.35
2023-02-04T12:06:04.063Z,5.57
2023-02-04T12:08:50.448Z,5.65
2023-02-04T12:11:36.268Z,6.90
2023-02-04T12:14:22.059Z,9.02
2023-02-04T12:17:18.340Z,10.65
2023-02-04T12:20:03.977Z,26.25
2023-02-04T12:22:49.711Z,6.10
2023-02-04T12:25:35.327Z,6.70
2023-02-04T12:28:22.015Z,8.30
2023-02-04T12:31:07.619Z,9.30
2023-02-04T12:33:54.252Z,7.88
2023-02-04T12:36:39.713Z,8.63
2023-02-04T12:39:25.177Z,10.43
2023-02-04T12:42:10.949Z,8.82
2023-02-04T12:44:56.403Z,7.70
2023-02-04T12:47:42.651Z,7.60
2023-02-04T12:50:28.336Z,10.52
2023-02-04T12:53:13.751Z,7.18
2023-02-04T12:55:59.339Z,10.27
2023-02-04T12:58:45.090Z,16.00
2023-02-04T13:01:30.824Z,11.18
2023-02-04T13:04:16.283Z,9.93
2023-02-04T13:07:03.610Z,8.55
2023-02-04T13:09:49.519Z,5.60
2023-02-04T13:12:35.112Z,11.88
2023-02-04T13:15:20.573Z,9.35
2023-02-04T13:18:08.221Z,10.90
2023-02-04T13:20:53.656Z,9.18
2023-02-04T13:23:39.069Z,8.98
2023-02-04T13:26:24.521Z,7.40
2023-02-04T13:29:10.226Z,7.72
2023-02-04T13:31:55.806Z,5.18
2023-02-04T13:34:41.600Z,10.93
2023-02-04T13:37:26.802Z,18.45
2023-02-04T13:40:16.007Z,9.05
2023-02-04T13:43:01.839Z,6.63
2023-02-04T13:45:48.929Z,11.57
2023-02-04T13:48:36.529Z,9.20
2023-02-04T13:51:22.121Z,9.80
2023-02-04T13:54:09.856Z,8.55
2023-02-04T13:56:55.248Z,9.50
2023-02-04T13:59:40.924Z,4.95
2023-02-04T14:02:26.244Z,10.82
2023-02-04T14:05:11.770Z,10.57
2023-02-04T14:07:57.254Z,5.85
2023-02-04T14:10:42.913Z,7.20
2023-02-04T14:13:28.388Z,15.15
2023-02-04T14:16:13.950Z,5.97
2023-02-04T14:18:59.508Z,5.88
2023-02-04T14:21:46.419Z,7.65
2023-02-04T14:24:32.355Z,5.90
2023-02-04T14:27:17.617Z,9.73
2023-02-04T14:30:03.449Z,11.65
2023-02-04T14:32:49.330Z,7.68
2023-02-04T14:35:34.876Z,9.50
2023-02-04T14:38:20.500Z,10.30
2023-02-04T14:41:06.039Z,4.63
2023-02-04T14:43:52.938Z,9.25
2023-02-04T14:46:41.129Z,6.90
2023-02-04T14:49:26.484Z,7.45
2023-02-04T14:52:13.165Z,5.25
2023-02-04T14:54:59.375Z,6.40
2023-02-04T14:57:44.927Z,5.82
2023-02-04T15:00:30.768Z,3.42
2023-02-04T15:03:17.072Z,13.18
2023-02-04T15:06:06.846Z,9.15
2023-02-04T15:08:54.667Z,7.45
2023-02-04T15:11:40.127Z,8.88
2023-02-04T15:14:28.862Z,8.00
2023-02-04T15:17:14.564Z,6.00
2023-02-04T15:20:00.366Z,6.15
2023-02-04T15:22:45.735Z,6.43
2023-02-04T15:25:33.856Z,8.05
2023-02-04T15:28:19.519Z,6.32
2023-02-04T15:31:05.392Z,5.00
2023-02-04T15:33:51.333Z,6.38
2023-02-04T15:36:36.743Z,11.45
2023-02-04T15:39:22.254Z,12.80
2023-02-04T15:42:07.838Z,8.45
2023-02-04T15:44:53.455Z,10.25
2023-02-04T15:47:41.734Z,7.47
2023-02-04T15:50:27.042Z,13.40
2023-02-04T15:53:12.803Z,11.88
2023-02-04T15:55:58.262Z,11.15
2023-02-04T15:58:44.018Z,9.30
2023-02-04T16:01:29.557Z,6.68
2023-02-04T16:04:15.145Z,7.22
2023-02-04T16:07:00.750Z,9.27
2023-02-04T16:09:46.688Z,5.65
2023-02-04T16:12:32.352Z,8.25
2023-02-04T16:15:18.436Z,6.75
2023-02-04T16:18:04.321Z,8.00
2023-02-04T16:20:58.019Z,12.98
2023-02-04T16:23:44.846Z,9.73
2023-02-04T16:26:32.354Z,10.90
2023-02-04T16:29:18.249Z,6.90
2023-02-04T16:32:04.057Z,13.02
2023-02-04T16:34:50.040Z,11.90
2023-02-04T16:37:37.650Z,12.77
2023-02-04T16:40:22.964Z,11.52
2023-02-04T16:43:08.658Z,13.77
2023-02-04T16:45:54.921Z,9.00
2023-02-04T16:48:40.347Z,10.15
2023-02-04T16:51:27.087Z,12.25
2023-02-04T16:54:12.572Z,8.38
2023-02-04T16:57:00.230Z,11.00
2023-02-04T16:59:45.571Z,10.20
2023-02-04T17:02:33.258Z,14.73
2023-02-04T17:05:20.361Z,15.23
2023-02-04T17:08:06.733Z,14.10
2023-02-04T17:11:10.885Z,10.63
2023-02-04T17:14:01.311Z,11.90
2023-02-04T17:16:48.348Z,14.77
2023-02-04T17:19:33.634Z,16.50
2023-02-04T17:22:19.237Z,14.13
2023-02-04T17:25:04.894Z,15.50
2023-02-04T17:27:51.645Z,19.10
2023-02-04T17:30:37.392Z,12.55
2023-02-04T17:33:23.167Z,15.75
2023-02-04T17:36:10.340Z,14.60
2023-02-04T17:38:56.575Z,18.73
2023-02-04T17:41:41.833Z,12.15
2023-02-04T17:44:27.884Z,15.43
2023-02-04T17:47:14.018Z,13.18
2023-02-04T17:50:00.729Z,11.63
2023-02-04T17:52:46.492Z,12.95
2023-02-04T17:55:34.118Z,17.90
2023-02-04T17:58:27.480Z,13.85
2023-02-04T18:01:18.892Z,12.93
2023-02-04T18:04:11.762Z,7.63
2023-02-04T18:06:57.298Z,13.68
2023-02-04T18:09:42.885Z,11.15
2023-02-04T18:12:28.339Z,11.60
2023-02-04T18:15:26.940Z,11.10
2023-02-04T18:18:23.692Z,9.13
2023-02-04T18:21:26.782Z,12.95
2023-02-04T18:24:21.081Z,16.38
2023-02-04T18:27:19.713Z,8.88
2023-02-04T18:30:19.016Z,12.15
2023-02-04T18:33:22.359Z,11.27
2023-02-04T18:36:14.019Z,12.73
2023-02-04T18:39:00.741Z,10.30
2023-02-04T18:41:49.565Z,9.45
2023-02-04T18:44:38.087Z,11.18
2023-02-04T18:47:31.752Z,11.00
2023-02-04T18:53:15.111Z,11.90
2023-02-04T18:56:02.141Z,10.45
2023-02-04T18:58:49.991Z,12.50
2023-02-04T19:01:39.419Z,9.90
2023-02-04T19:04:28.711Z,8.77
2023-02-04T19:07:15.737Z,9.20
2023-02-04T19:10:10.757Z,13.85
2023-02-04T19:13:30.412Z,9.50
2023-02-04T19:16:25.186Z,8.57
2023-02-04T19:19:33.963Z,8.25
2023-02-04T19:22:31.938Z,9.88
2023-02-04T19:25:34.083Z,10.32
2023-02-04T19:28:38.247Z,10.68
2023-02-04T19:34:27.527Z,12.77
2023-02-04T19:37:40.201Z,9.45
2023-02-04T19:40:29.977Z,12.80
2023-02-04T19:43:26.843Z,14.68
2023-02-04T19:46:23.948Z,12.18
2023-02-04T19:49:20.715Z,8.73
2023-02-04T19:52:20.062Z,9.32
2023-02-04T19:55:18.356Z,7.85
2023-02-04T19:58:23.107Z,10.82
2023-02-04T20:01:17.837Z,14.90
2023-02-04T20:04:12.487Z,12.88
2023-02-04T20:06:58.060Z,11.70
2023-02-04T20:09:43.625Z,12.05
2023-02-04T20:12:32.195Z,11.32
2023-02-04T20:15:19.130Z,13.80
2023-02-04T20:18:23.073Z,12.00
2023-02-04T20:23:57.438Z,13.50
2023-02-04T20:26:43.848Z,16.75
2023-02-04T20:29:29.501Z,15.98
2023-02-04T20:32:26.278Z,11.60
2023-02-04T20:35:21.275Z,9.18
2023-02-04T20:38:17.744Z,13.95
2023-02-04T20:41:16.214Z,11.57
2023-02-04T20:44:04.937Z,10.95
2023-02-04T20:46:50.450Z,12.05
2023-02-04T20:49:43.037Z,12.63
2023-02-04T20:52:40.997Z,12.77
2023-02-04T20:55:31.817Z,13.13
2023-02-04T20:58:24.234Z,12.15
2023-02-04T21:01:36.612Z,13.10
2023-02-04T21:04:38.872Z,12.50
2023-02-04T21:07:25.304Z,10.10
2023-02-04T21:10:12.073Z,15.27
2023-02-04T21:13:01.491Z,13.65
2023-02-04T21:15:47.782Z,11.80
2023-02-04T21:18:35.088Z,10.73
2023-02-04T21:21:23.516Z,16.23
2023-02-04T21:24:11.026Z,12.52
2023-02-04T21:26:57.653Z,16.23
2023-02-04T21:29:43.985Z,18.45
2023-02-04T21:32:30.181Z,15.15
2023-02-04T21:35:21.597Z,15.15
2023-02-04T21:38:08.534Z,15.25
2023-02-04T21:40:54.710Z,13.73
2023-02-04T21:43:40.766Z,14.32
2023-02-04T21:46:26.913Z,13.60
2023-02-04T21:49:12.901Z,11.00
2023-02-04T21:51:59.033Z,15.15
2023-02-04T21:54:45.340Z,11.43
2023-02-04T21:57:32.315Z,14.13
2023-02-04T22:00:23.934Z,13.68
2023-02-04T22:03:15.760Z,12.98
2023-02-04T22:06:01.801Z,11.65
2023-02-04T22:08:47.445Z,12.00
2023-02-04T22:11:32.785Z,8.35
2023-02-04T22:14:19.266Z,13.00
2023-02-04T22:17:04.849Z,12.07
2023-02-04T22:19:50.807Z,16.23
2023-02-04T22:22:36.883Z,13.00
2023-02-04T22:25:23.031Z,13.40
2023-02-04T22:28:09.026Z,14.23
2023-02-04T22:31:32.799Z,10.98
2023-02-04T22:34:42.197Z,16.20
2023-02-04T22:37:37.313Z,13.55
2023-02-04T22:40:26.353Z,9.73
2023-02-04T22:43:14.405Z,13.30
2023-02-04T22:45:59.863Z,12.20
2023-02-04T22:48:46.458Z,11.23
2023-02-04T22:51:39.948Z,12.00
2023-02-04T22:54:26.956Z,18.95
2023-02-04T22:57:16.141Z,11.88
2023-02-04T23:00:09.353Z,17.15
2023-02-04T23:07:36.854Z,13.35
2023-02-04T23:10:13.795Z,11.55
2023-02-04T23:12:59.028Z,13.93
2023-02-04T23:15:44.890Z,11.05
2023-02-04T23:18:30.635Z,11.50
2023-02-04T23:21:16.670Z,13.85
2023-02-04T23:24:02.582Z,12.35
2023-02-04T23:26:48.377Z,10.30
2023-02-04T23:29:35.455Z,13.30
2023-02-04T23:32:20.923Z,13.05
2023-02-04T23:35:07.235Z,14.35
2023-02-04T23:37:52.964Z,15.10
2023-02-04T23:40:38.641Z,15.43
2023-02-04T23:43:24.157Z,12.65
2023-02-04T23:46:10.418Z,13.90
2023-02-04T23:48:56.214Z,15.45
2023-02-04T23:51:41.615Z,15.05
2023-02-04T23:54:26.858Z,16.52
2023-02-04T23:57:12.442Z,15.82
2023-02-04T23:59:58.256Z,15.45
